sensor_id;sensor_type;location;lat;lon;timestamp;pressure;altitude;pressure_sealevel;temperature;humidity
14089;BME280;7120;52.890;6.040;2023-12-20T00:02:06;101283.31;;;7.16;100.00
14089;BME280;7120;52.890;6.040;2023-12-20T00:04:32;101277.91;;;7.26;100.00
14089;BME280;7120;52.890;6.040;2023-12-20T00:06:57;101266.97;;;7.16;100.00
14089;BME280;7120;52.890;6.040;2023-12-20T00:09:22;101269.97;;;7.14;100.00
14089;BME280;7120;52.890;6.040;2023-12-20T00:11:48;101265.88;;;7.07;100.00
14089;BME280;7120;52.890;6.040;2023-12-20T00:14:13;101274.81;;;6.92;100.00
14089;BME280;7120;52.890;6.040;2023-12-20T00:16:38;101273.75;;;7.03;100.00
14089;BME280;7120;52.890;6.040;2023-12-20T00:19:04;101265.59;;;6.98;100.00
14089;BME280;7120;52.890;6.040;2023-12-20T00:21:29;101267.47;;;6.93;100.00
14089;BME280;7120;52.890;6.040;2023-12-20T00:23:54;101266.34;;;6.88;100.00
14089;BME280;7120;52.890;6.040;2023-12-20T00:26:20;101251.69;;;6.89;100.00
14089;BME280;7120;52.890;6.040;2023-12-20T00:28:45;101252.56;;;7.05;100.00
14089;BME280;7120;52.890;6.040;2023-12-20T00:31:10;101268.56;;;6.97;100.00
14089;BME280;7120;52.890;6.040;2023-12-20T00:33:36;101264.19;;;6.91;100.00
14089;BME280;7120;52.890;6.040;2023-12-20T00:36:01;101259.88;;;7.00;100.00
14089;BME280;7120;52.890;6.040;2023-12-20T00:38:26;101268.84;;;6.95;100.00
14089;BME280;7120;52.890;6.040;2023-12-20T00:40:52;101262.56;;;6.84;100.00
14089;BME280;7120;52.890;6.040;2023-12-20T00:43:17;101251.97;;;6.93;100.00
14089;BME280;7120;52.890;6.040;2023-12-20T00:45:42;101263.13;;;6.92;100.00
14089;BME280;7120;52.890;6.040;2023-12-20T00:48:08;101252.19;;;6.81;100.00
14089;BME280;7120;52.890;6.040;2023-12-20T00:50:33;101247.03;;;6.80;100.00
14089;BME280;7120;52.890;6.040;2023-12-20T00:52:58;101245.69;;;6.87;100.00
14089;BME280;7120;52.890;6.040;2023-12-20T00:55:24;101253.91;;;6.98;100.00
14089;BME280;7120;52.890;6.040;2023-12-20T00:57:49;101247.88;;;6.96;100.00
14089;BME280;7120;52.890;6.040;2023-12-20T01:00:15;101248.44;;;6.93;100.00
14089;BME280;7120;52.890;6.040;2023-12-20T01:02:40;101254.16;;;7.01;100.00
14089;BME280;7120;52.890;6.040;2023-12-20T01:05:06;101244.63;;;6.94;100.00
14089;BME280;7120;52.890;6.040;2023-12-20T01:07:32;101250.88;;;6.94;100.00
14089;BME280;7120;52.890;6.040;2023-12-20T01:09:58;101244.88;;;6.87;100.00
14089;BME280;7120;52.890;6.040;2023-12-20T01:12:23;101246.03;;;7.06;100.00
14089;BME280;7120;52.890;6.040;2023-12-20T01:14:48;101248.47;;;7.18;100.00
14089;BME280;7120;52.890;6.040;2023-12-20T01:17:14;101243.84;;;7.19;100.00
14089;BME280;7120;52.890;6.040;2023-12-20T01:19:39;101236.00;;;7.27;100.00
14089;BME280;7120;52.890;6.040;2023-12-20T01:22:04;101235.16;;;7.16;100.00
14089;BME280;7120;52.890;6.040;2023-12-20T01:24:30;101224.00;;;7.08;100.00
14089;BME280;7120;52.890;6.040;2023-12-20T01:26:55;101230.81;;;7.26;100.00
14089;BME280;7120;52.890;6.040;2023-12-20T01:29:21;101236.00;;;7.27;100.00
14089;BME280;7120;52.890;6.040;2023-12-20T01:31:46;101232.72;;;7.20;100.00
14089;BME280;7120;52.890;6.040;2023-12-20T01:34:12;101224.59;;;7.40;100.00
14089;BME280;7120;52.890;6.040;2023-12-20T01:36:37;101230.28;;;7.29;100.00
14089;BME280;7120;52.890;6.040;2023-12-20T01:39:02;101225.66;;;7.29;100.00
14089;BME280;7120;52.890;6.040;2023-12-20T01:41:28;101222.13;;;7.29;100.00
14089;BME280;7120;52.890;6.040;2023-12-20T01:43:53;101211.22;;;7.19;100.00
14089;BME280;7120;52.890;6.040;2023-12-20T01:46:19;101212.84;;;7.09;100.00
14089;BME280;7120;52.890;6.040;2023-12-20T01:48:45;101219.94;;;7.26;100.00
14089;BME280;7120;52.890;6.040;2023-12-20T01:51:11;101213.94;;;7.19;100.00
14089;BME280;7120;52.890;6.040;2023-12-20T01:53:36;101198.44;;;7.09;100.00
14089;BME280;7120;52.890;6.040;2023-12-20T01:56:02;101207.69;;;7.18;100.00
14089;BME280;7120;52.890;6.040;2023-12-20T01:58:28;101209.06;;;7.15;100.00
14089;BME280;7120;52.890;6.040;2023-12-20T02:00:56;101214.50;;;7.21;100.00
14089;BME280;7120;52.890;6.040;2023-12-20T02:03:22;101212.59;;;7.21;100.00
14089;BME280;7120;52.890;6.040;2023-12-20T02:05:47;101217.22;;;7.15;100.00
14089;BME280;7120;52.890;6.040;2023-12-20T02:08:13;101208.00;;;7.27;100.00
14089;BME280;7120;52.890;6.040;2023-12-20T02:10:39;101211.50;;;7.37;100.00
14089;BME280;7120;52.890;6.040;2023-12-20T02:13:05;101205.00;;;7.33;100.00
14089;BME280;7120;52.890;6.040;2023-12-20T02:15:31;101202.81;;;7.40;100.00
14089;BME280;7120;52.890;6.040;2023-12-20T02:17:56;101194.94;;;7.54;100.00
14089;BME280;7120;52.890;6.040;2023-12-20T02:20:22;101207.44;;;7.55;100.00
14089;BME280;7120;52.890;6.040;2023-12-20T02:22:47;101201.47;;;7.68;100.00
14089;BME280;7120;52.890;6.040;2023-12-20T02:25:12;101193.56;;;7.62;100.00
14089;BME280;7120;52.890;6.040;2023-12-20T02:27:38;101191.66;;;7.47;100.00
14089;BME280;7120;52.890;6.040;2023-12-20T02:30:05;101190.56;;;7.58;100.00
14089;BME280;7120;52.890;6.040;2023-12-20T02:32:30;101189.47;;;7.59;100.00
14089;BME280;7120;52.890;6.040;2023-12-20T02:34:56;101183.22;;;7.59;100.00
14089;BME280;7120;52.890;6.040;2023-12-20T02:37:21;101177.22;;;7.57;100.00
14089;BME280;7120;52.890;6.040;2023-12-20T02:39:47;101178.88;;;7.48;100.00
14089;BME280;7120;52.890;6.040;2023-12-20T02:42:12;101167.41;;;7.66;100.00
14089;BME280;7120;52.890;6.040;2023-12-20T02:44:38;101166.88;;;7.69;100.00
14089;BME280;7120;52.890;6.040;2023-12-20T02:47:03;101178.88;;;7.63;100.00
14089;BME280;7120;52.890;6.040;2023-12-20T02:49:28;101178.88;;;7.63;100.00
14089;BME280;7120;52.890;6.040;2023-12-20T02:51:54;101175.56;;;7.61;100.00
14089;BME280;7120;52.890;6.040;2023-12-20T02:54:19;101168.78;;;7.63;100.00
14089;BME280;7120;52.890;6.040;2023-12-20T02:56:44;101169.59;;;7.59;100.00
14089;BME280;7120;52.890;6.040;2023-12-20T02:59:10;101164.69;;;7.76;100.00
14089;BME280;7120;52.890;6.040;2023-12-20T03:01:41;101159.25;;;7.66;100.00
14089;BME280;7120;52.890;6.040;2023-12-20T03:04:07;101166.88;;;7.69;100.00
14089;BME280;7120;52.890;6.040;2023-12-20T03:06:33;101159.00;;;7.62;100.00
14089;BME280;7120;52.890;6.040;2023-12-20T03:08:58;101158.47;;;7.55;100.00
14089;BME280;7120;52.890;6.040;2023-12-20T03:11:26;101161.47;;;7.49;100.00
14089;BME280;7120;52.890;6.040;2023-12-20T03:13:52;101165.25;;;7.63;100.00
14089;BME280;7120;52.890;6.040;2023-12-20T03:16:20;101164.44;;;7.57;100.00
14089;BME280;7120;52.890;6.040;2023-12-20T03:18:45;101165.53;;;7.56;100.00
14089;BME280;7120;52.890;6.040;2023-12-20T03:21:11;101160.63;;;7.53;100.00
14089;BME280;7120;52.890;6.040;2023-12-20T03:23:36;101170.44;;;7.54;100.00
14089;BME280;7120;52.890;6.040;2023-12-20T03:26:01;101167.97;;;7.53;100.00
14089;BME280;7120;52.890;6.040;2023-12-20T03:28:27;101162.56;;;7.48;100.00
14089;BME280;7120;52.890;6.040;2023-12-20T03:30:53;101163.09;;;7.50;100.00
14089;BME280;7120;52.890;6.040;2023-12-20T03:33:18;101153.28;;;7.49;100.00
14089;BME280;7120;52.890;6.040;2023-12-20T03:35:43;101151.66;;;7.53;100.00
14089;BME280;7120;52.890;6.040;2023-12-20T03:38:09;101149.19;;;7.46;100.00
14089;BME280;7120;52.890;6.040;2023-12-20T03:40:34;101152.47;;;7.63;100.00
14089;BME280;7120;52.890;6.040;2023-12-20T03:43:00;101151.38;;;7.64;100.00
14089;BME280;7120;52.890;6.040;2023-12-20T03:45:26;101147.25;;;7.67;100.00
14089;BME280;7120;52.890;6.040;2023-12-20T03:47:51;101152.72;;;7.77;100.00
14089;BME280;7120;52.890;6.040;2023-12-20T03:50:22;101143.97;;;7.80;100.00
14089;BME280;7120;52.890;6.040;2023-12-20T03:52:48;101148.59;;;7.85;100.00
14089;BME280;7120;52.890;6.040;2023-12-20T03:55:13;101146.69;;;7.90;100.00
14089;BME280;7120;52.890;6.040;2023-12-20T03:57:39;101138.75;;;7.94;100.00
14089;BME280;7120;52.890;6.040;2023-12-20T04:00:05;101145.31;;;7.88;100.00
14089;BME280;7120;52.890;6.040;2023-12-20T04:02:34;101138.00;;;7.83;100.00
14089;BME280;7120;52.890;6.040;2023-12-20T04:04:59;101131.16;;;7.86;100.00
14089;BME280;7120;52.890;6.040;2023-12-20T04:07:24;101132.50;;;7.98;100.00
14089;BME280;7120;52.890;6.040;2023-12-20T04:09:50;101122.13;;;8.01;100.00
14089;BME280;7120;52.890;6.040;2023-12-20T04:12:16;101128.63;;;8.10;100.00
14089;BME280;7120;52.890;6.040;2023-12-20T04:14:41;101121.31;;;8.00;100.00
14089;BME280;7120;52.890;6.040;2023-12-20T04:17:06;101114.78;;;8.01;100.00
14089;BME280;7120;52.890;6.040;2023-12-20T04:19:32;101117.22;;;8.03;100.00
14089;BME280;7120;52.890;6.040;2023-12-20T04:21:57;101119.69;;;7.99;100.00
14089;BME280;7120;52.890;6.040;2023-12-20T04:24:22;101115.59;;;8.02;100.00
14089;BME280;7120;52.890;6.040;2023-12-20T04:26:48;101112.84;;;8.12;100.00
14089;BME280;7120;52.890;6.040;2023-12-20T04:29:13;101115.31;;;8.03;100.00
14089;BME280;7120;52.890;6.040;2023-12-20T04:31:38;101111.53;;;7.94;100.00
14089;BME280;7120;52.890;6.040;2023-12-20T04:34:04;101112.06;;;8.01;100.00
14089;BME280;7120;52.890;6.040;2023-12-20T04:36:29;101109.84;;;8.08;100.00
14089;BME280;7120;52.890;6.040;2023-12-20T04:38:55;101108.72;;;8.19;100.00
14089;BME280;7120;52.890;6.040;2023-12-20T04:41:20;101111.75;;;8.08;100.00
14089;BME280;7120;52.890;6.040;2023-12-20T04:43:45;101108.72;;;8.19;100.00
14089;BME280;7120;52.890;6.040;2023-12-20T04:46:11;101102.72;;;8.17;100.00
14089;BME280;7120;52.890;6.040;2023-12-20T04:48:36;101100.56;;;8.09;100.00
14089;BME280;7120;52.890;6.040;2023-12-20T04:51:01;101093.44;;;8.23;100.00
14089;BME280;7120;52.890;6.040;2023-12-20T04:53:31;101098.38;;;8.16;100.00
14089;BME280;7120;52.890;6.040;2023-12-20T04:55:56;101099.44;;;8.25;100.00
14089;BME280;7120;52.890;6.040;2023-12-20T04:58:21;101098.63;;;8.25;100.00
14089;BME280;7120;52.890;6.040;2023-12-20T05:00:47;101101.03;;;8.32;100.00
14089;BME280;7120;52.890;6.040;2023-12-20T05:03:12;101104.31;;;8.23;100.00
14089;BME280;7120;52.890;6.040;2023-12-20T05:05:37;101105.38;;;8.38;100.00
14089;BME280;7120;52.890;6.040;2023-12-20T05:08:03;101108.94;;;8.33;100.00
14089;BME280;7120;52.890;6.040;2023-12-20T05:10:29;101102.91;;;8.31;100.00
14089;BME280;7120;52.890;6.040;2023-12-20T05:12:54;101096.66;;;8.31;100.00
14089;BME280;7120;52.890;6.040;2023-12-20T05:15:19;101108.13;;;8.33;100.00
14089;BME280;7120;52.890;6.040;2023-12-20T05:17:45;101107.31;;;8.27;100.00
14089;BME280;7120;52.890;6.040;2023-12-20T05:20:10;101106.00;;;8.19;100.00
14089;BME280;7120;52.890;6.040;2023-12-20T05:22:35;101110.84;;;8.33;100.00
14089;BME280;7120;52.890;6.040;2023-12-20T05:25:04;101102.91;;;8.31;100.00
14089;BME280;7120;52.890;6.040;2023-12-20T05:27:29;101101.28;;;8.40;100.00
14089;BME280;7120;52.890;6.040;2023-12-20T05:29:55;101101.28;;;8.30;100.00
14089;BME280;7120;52.890;6.040;2023-12-20T05:32:23;101097.72;;;8.45;100.00
14089;BME280;7120;52.890;6.040;2023-12-20T05:34:48;101100.47;;;8.40;100.00
14089;BME280;7120;52.890;6.040;2023-12-20T05:37:13;101089.53;;;8.45;100.00
14089;BME280;7120;52.890;6.040;2023-12-20T05:39:39;101091.75;;;8.38;100.00
14089;BME280;7120;52.890;6.040;2023-12-20T05:42:04;101087.94;;;8.39;100.00
14089;BME280;7120;52.890;6.040;2023-12-20T05:44:29;101082.13;;;8.56;100.00
14089;BME280;7120;52.890;6.040;2023-12-20T05:46:57;101086.44;;;8.62;100.00
14089;BME280;7120;52.890;6.040;2023-12-20T05:49:23;101088.41;;;8.51;100.00
14089;BME280;7120;52.890;6.040;2023-12-20T05:51:48;101086.00;;;8.44;100.00
14089;BME280;7120;52.890;6.040;2023-12-20T05:54:13;101074.00;;;8.45;100.00
14089;BME280;7120;52.890;6.040;2023-12-20T05:56:39;101073.72;;;8.47;100.00
14089;BME280;7120;52.890;6.040;2023-12-20T05:59:04;101070.50;;;8.40;100.00
14089;BME280;7120;52.890;6.040;2023-12-20T06:01:29;101070.50;;;8.35;100.00
14089;BME280;7120;52.890;6.040;2023-12-20T06:03:55;101074.59;;;8.37;100.00
14089;BME280;7120;52.890;6.040;2023-12-20T06:06:20;101075.13;;;8.39;100.00
14089;BME280;7120;52.890;6.040;2023-12-20T06:08:45;101075.56;;;8.57;100.00
14089;BME280;7120;52.890;6.040;2023-12-20T06:11:11;101066.06;;;8.49;100.00
14089;BME280;7120;52.890;6.040;2023-12-20T06:13:36;101073.91;;;8.61;100.00
14089;BME280;7120;52.890;6.040;2023-12-20T06:16:01;101063.00;;;8.61;100.00
14089;BME280;7120;52.890;6.040;2023-12-20T06:18:27;101062.44;;;8.64;100.00
14089;BME280;7120;52.890;6.040;2023-12-20T06:20:52;101061.66;;;8.58;100.00
14089;BME280;7120;52.890;6.040;2023-12-20T06:23:17;101078.38;;;8.80;100.00
14089;BME280;7120;52.890;6.040;2023-12-20T06:25:44;101067.28;;;8.72;100.00
14089;BME280;7120;52.890;6.040;2023-12-20T06:28:09;101073.03;;;8.65;100.00
14089;BME280;7120;52.890;6.040;2023-12-20T06:30:35;101077.13;;;8.68;100.00
14089;BME280;7120;52.890;6.040;2023-12-20T06:33:01;101080.06;;;8.76;100.00
14089;BME280;7120;52.890;6.040;2023-12-20T06:35:26;101079.97;;;8.87;100.00
14089;BME280;7120;52.890;6.040;2023-12-20T06:37:51;101074.03;;;8.79;100.00
14089;BME280;7120;52.890;6.040;2023-12-20T06:40:17;101075.59;;;8.91;100.00
14089;BME280;7120;52.890;6.040;2023-12-20T06:42:43;101084.31;;;8.88;100.00
14089;BME280;7120;52.890;6.040;2023-12-20T06:45:09;101060.84;;;8.92;100.00
14089;BME280;7120;52.890;6.040;2023-12-20T06:47:35;101060.28;;;8.61;100.00
14089;BME280;7120;52.890;6.040;2023-12-20T06:50:00;101061.75;;;8.82;100.00
14089;BME280;7120;52.890;6.040;2023-12-20T06:52:26;101058.47;;;8.80;100.00
14089;BME280;7120;52.890;6.040;2023-12-20T06:54:51;101054.91;;;8.85;100.00
14089;BME280;7120;52.890;6.040;2023-12-20T06:57:17;101045.13;;;8.78;100.00
14089;BME280;7120;52.890;6.040;2023-12-20T06:59:42;101041.28;;;8.85;100.00
14089;BME280;7120;52.890;6.040;2023-12-20T07:02:08;101044.81;;;8.85;100.00
14089;BME280;7120;52.890;6.040;2023-12-20T07:04:34;101043.72;;;8.86;100.00
14089;BME280;7120;52.890;6.040;2023-12-20T07:06:59;101045.09;;;8.84;100.00
14089;BME280;7120;52.890;6.040;2023-12-20T07:09:26;101039.31;;;8.90;100.00
14089;BME280;7120;52.890;6.040;2023-12-20T07:11:52;101032.38;;;8.74;100.00
14089;BME280;7120;52.890;6.040;2023-12-20T07:14:17;101046.50;;;8.81;100.00
14089;BME280;7120;52.890;6.040;2023-12-20T07:16:45;101047.81;;;8.89;100.00
14089;BME280;7120;52.890;6.040;2023-12-20T07:19:11;101049.56;;;8.74;100.00
14089;BME280;7120;52.890;6.040;2023-12-20T07:21:36;101049.75;;;8.83;100.00
14089;BME280;7120;52.890;6.040;2023-12-20T07:24:01;101044.00;;;8.85;100.00
14089;BME280;7120;52.890;6.040;2023-12-20T07:26:27;101042.69;;;8.77;100.00
14089;BME280;7120;52.890;6.040;2023-12-20T07:28:52;101039.31;;;8.90;100.00
14089;BME280;7120;52.890;6.040;2023-12-20T07:31:18;101039.22;;;9.00;100.00
14089;BME280;7120;52.890;6.040;2023-12-20T07:33:43;101036.16;;;8.78;100.00
14089;BME280;7120;52.890;6.040;2023-12-20T07:36:08;101034.25;;;8.73;100.00
14089;BME280;7120;52.890;6.040;2023-12-20T07:38:34;101033.94;;;8.80;100.00
14089;BME280;7120;52.890;6.040;2023-12-20T07:41:00;101034.44;;;8.87;100.00
14089;BME280;7120;52.890;6.040;2023-12-20T07:43:25;101041.59;;;8.78;100.00
14089;BME280;7120;52.890;6.040;2023-12-20T07:45:50;101047.81;;;8.89;100.00
14089;BME280;7120;52.890;6.040;2023-12-20T07:48:16;101064.03;;;8.70;100.00
14089;BME280;7120;52.890;6.040;2023-12-20T07:50:41;101055.50;;;8.82;100.00
14089;BME280;7120;52.890;6.040;2023-12-20T07:53:07;101060.03;;;8.91;100.00
14089;BME280;7120;52.890;6.040;2023-12-20T07:55:33;101053.75;;;8.96;100.00
14089;BME280;7120;52.890;6.040;2023-12-20T07:57:59;101057.94;;;8.83;100.00
14089;BME280;7120;52.890;6.040;2023-12-20T08:00:25;101051.38;;;8.84;100.00
14089;BME280;7120;52.890;6.040;2023-12-20T08:02:50;101060.81;;;8.97;100.00
14089;BME280;7120;52.890;6.040;2023-12-20T08:05:15;101050.03;;;8.82;100.00
14089;BME280;7120;52.890;6.040;2023-12-20T08:07:41;101059.75;;;8.93;100.00
14089;BME280;7120;52.890;6.040;2023-12-20T08:10:06;101058.44;;;8.85;100.00
14089;BME280;7120;52.890;6.040;2023-12-20T08:12:35;101058.97;;;8.87;100.00
14089;BME280;7120;52.890;6.040;2023-12-20T08:15:03;101061.94;;;8.96;100.00
14089;BME280;7120;52.890;6.040;2023-12-20T08:17:29;101064.97;;;8.89;100.00
14089;BME280;7120;52.890;6.040;2023-12-20T08:19:54;101060.88;;;8.87;100.00
14089;BME280;7120;52.890;6.040;2023-12-20T08:22:20;101069.19;;;9.05;100.00
14089;BME280;7120;52.890;6.040;2023-12-20T08:24:45;101052.53;;;8.73;100.00
14089;BME280;7120;52.890;6.040;2023-12-20T08:27:10;101054.41;;;8.77;100.00
14089;BME280;7120;52.890;6.040;2023-12-20T08:29:35;101046.75;;;8.79;100.00
14089;BME280;7120;52.890;6.040;2023-12-20T08:32:01;101040.78;;;8.77;100.00
14089;BME280;7120;52.890;6.040;2023-12-20T08:34:26;101044.91;;;8.75;100.00
14089;BME280;7120;52.890;6.040;2023-12-20T08:36:52;101047.97;;;9.02;100.00
14089;BME280;7120;52.890;6.040;2023-12-20T08:39:17;101051.81;;;8.96;100.00
14089;BME280;7120;52.890;6.040;2023-12-20T08:41:43;101048.66;;;8.84;100.00
14089;BME280;7120;52.890;6.040;2023-12-20T08:44:08;101046.41;;;8.91;100.00
14089;BME280;7120;52.890;6.040;2023-12-20T08:46:34;101060.00;;;8.96;100.00
14089;BME280;7120;52.890;6.040;2023-12-20T08:49:00;101076.41;;;8.91;100.00
14089;BME280;7120;52.890;6.040;2023-12-20T08:51:26;101070.53;;;9.08;100.00
14089;BME280;7120;52.890;6.040;2023-12-20T08:53:51;101066.63;;;9.19;100.00
14089;BME280;7120;52.890;6.040;2023-12-20T08:56:17;101073.59;;;9.01;100.00
14089;BME280;7120;52.890;6.040;2023-12-20T08:58:44;101068.53;;;9.19;100.00
14089;BME280;7120;52.890;6.040;2023-12-20T09:01:09;101069.31;;;9.24;100.00
14089;BME280;7120;52.890;6.040;2023-12-20T09:03:35;101059.69;;;9.03;100.00
14089;BME280;7120;52.890;6.040;2023-12-20T09:06:00;101065.69;;;9.00;100.00
14089;BME280;7120;52.890;6.040;2023-12-20T09:08:26;101064.41;;;8.92;100.00
14089;BME280;7120;52.890;6.040;2023-12-20T09:10:51;101058.56;;;9.04;100.00
14089;BME280;7120;52.890;6.040;2023-12-20T09:13:16;101058.44;;;9.19;100.00
14089;BME280;7120;52.890;6.040;2023-12-20T09:15:42;101049.63;;;9.27;100.00
14089;BME280;7120;52.890;6.040;2023-12-20T09:18:07;101043.09;;;9.52;100.00
14089;BME280;7120;52.890;6.040;2023-12-20T09:20:33;101049.84;;;9.60;100.00
14089;BME280;7120;52.890;6.040;2023-12-20T09:22:59;101039.72;;;9.60;100.00
14089;BME280;7120;52.890;6.040;2023-12-20T09:25:24;101049.06;;;9.54;100.00
14089;BME280;7120;52.890;6.040;2023-12-20T09:27:51;101049.41;;;9.48;100.00
14089;BME280;7120;52.890;6.040;2023-12-20T09:30:17;101068.94;;;9.60;100.00
14089;BME280;7120;52.890;6.040;2023-12-20T09:32:43;101090.66;;;9.46;100.00
14089;BME280;7120;52.890;6.040;2023-12-20T09:35:08;101098.50;;;9.24;100.00
14089;BME280;7120;52.890;6.040;2023-12-20T09:37:34;101102.22;;;8.65;100.00
14089;BME280;7120;52.890;6.040;2023-12-20T09:39:59;101122.84;;;8.32;100.00
14089;BME280;7120;52.890;6.040;2023-12-20T09:44:59;101123.22;;;8.05;100.00
14089;BME280;7120;52.890;6.040;2023-12-20T09:47:27;101132.44;;;8.14;100.00
14089;BME280;7120;52.890;6.040;2023-12-20T09:49:52;101126.72;;;8.15;100.00
14089;BME280;7120;52.890;6.040;2023-12-20T09:52:18;101136.28;;;8.08;100.00
14089;BME280;7120;52.890;6.040;2023-12-20T09:54:45;101138.47;;;8.11;100.00
14089;BME280;7120;52.890;6.040;2023-12-20T09:57:12;101139.56;;;8.05;100.00
14089;BME280;7120;52.890;6.040;2023-12-20T09:59:39;101143.69;;;7.97;100.00
14089;BME280;7120;52.890;6.040;2023-12-20T10:02:10;101151.03;;;7.81;100.00
14089;BME280;7120;52.890;6.040;2023-12-20T10:04:40;101144.22;;;7.89;100.00
14089;BME280;7120;52.890;6.040;2023-12-20T10:07:10;101152.44;;;7.84;100.00
14089;BME280;7120;52.890;6.040;2023-12-20T10:09:35;101155.44;;;7.72;100.00
14089;BME280;7120;52.890;6.040;2023-12-20T10:12:01;101156.78;;;7.80;100.00
14089;BME280;7120;52.890;6.040;2023-12-20T10:14:26;101159.25;;;7.66;100.00
14089;BME280;7120;52.890;6.040;2023-12-20T10:16:52;101156.28;;;7.62;100.00
14089;BME280;7120;52.890;6.040;2023-12-20T10:19:19;101149.41;;;7.75;100.00
14089;BME280;7120;52.890;6.040;2023-12-20T10:21:44;101137.44;;;7.81;100.00
14089;BME280;7120;52.890;6.040;2023-12-20T10:24:16;101139.63;;;7.84;100.00
14089;BME280;7120;52.890;6.040;2023-12-20T10:26:42;101143.13;;;7.95;100.00
14089;BME280;7120;52.890;6.040;2023-12-20T10:29:07;101139.06;;;7.87;100.00
14089;BME280;7120;52.890;6.040;2023-12-20T10:31:33;101133.06;;;7.90;100.00
14089;BME280;7120;52.890;6.040;2023-12-20T10:34:02;101137.06;;;8.13;100.00
14089;BME280;7120;52.890;6.040;2023-12-20T10:36:32;101124.84;;;8.01;100.00
14089;BME280;7120;52.890;6.040;2023-12-20T10:38:58;101137.34;;;8.12;100.00
14089;BME280;7120;52.890;6.040;2023-12-20T10:41:28;101137.38;;;8.02;100.00
14089;BME280;7120;52.890;6.040;2023-12-20T10:44:02;101133.25;;;8.09;100.00
14089;BME280;7120;52.890;6.040;2023-12-20T10:46:29;101127.88;;;7.94;100.00
14089;BME280;7120;52.890;6.040;2023-12-20T10:48:58;101122.66;;;8.03;100.00
14089;BME280;7120;52.890;6.040;2023-12-20T10:51:24;101118.81;;;8.14;100.00
14089;BME280;7120;52.890;6.040;2023-12-20T10:53:52;101116.97;;;7.99;100.00
14089;BME280;7120;52.890;6.040;2023-12-20T10:56:19;101107.47;;;7.96;100.00
14089;BME280;7120;52.890;6.040;2023-12-20T10:58:48;101115.81;;;8.10;100.00
14089;BME280;7120;52.890;6.040;2023-12-20T11:01:14;101110.66;;;8.14;100.00
14089;BME280;7120;52.890;6.040;2023-12-20T11:03:52;101104.91;;;8.15;100.00
14089;BME280;7120;52.890;6.040;2023-12-20T11:06:37;101100.56;;;8.09;100.00
14089;BME280;7120;52.890;6.040;2023-12-20T11:09:25;101104.63;;;8.22;100.00
14089;BME280;7120;52.890;6.040;2023-12-20T11:11:59;101099.41;;;8.36;100.00
14089;BME280;7120;52.890;6.040;2023-12-20T11:14:37;101096.13;;;8.34;100.00
14089;BME280;7120;52.890;6.040;2023-12-20T11:17:14;101091.41;;;8.49;100.00
14089;BME280;7120;52.890;6.040;2023-12-20T11:22:24;101089.59;;;8.40;100.00
14089;BME280;7120;52.890;6.040;2023-12-20T11:24:51;101092.56;;;8.38;100.00
14089;BME280;7120;52.890;6.040;2023-12-20T11:27:18;101089.50;;;8.50;100.00
14089;BME280;7120;52.890;6.040;2023-12-20T11:29:54;101080.31;;;8.36;100.00
14089;BME280;7120;52.890;6.040;2023-12-20T11:34:50;101073.31;;;8.14;100.00
14089;BME280;7120;52.890;6.040;2023-12-20T11:37:16;101077.03;;;8.34;100.00
14089;BME280;7120;52.890;6.040;2023-12-20T11:39:43;101077.63;;;8.25;100.00
14089;BME280;7120;52.890;6.040;2023-12-20T11:42:09;101064.78;;;8.31;100.00
14089;BME280;7120;52.890;6.040;2023-12-20T11:44:36;101075.66;;;8.46;100.00
14089;BME280;7120;52.890;6.040;2023-12-20T11:47:02;101082.50;;;8.34;100.00
14089;BME280;7120;52.890;6.040;2023-12-20T11:49:27;101067.19;;;8.43;100.00
14089;BME280;7120;52.890;6.040;2023-12-20T11:51:54;101081.66;;;8.38;100.00
14089;BME280;7120;52.890;6.040;2023-12-20T11:54:19;101069.13;;;8.37;100.00
14089;BME280;7120;52.890;6.040;2023-12-20T11:56:46;101068.28;;;8.47;100.00
14089;BME280;7120;52.890;6.040;2023-12-20T11:59:11;101052.19;;;8.45;100.00
14089;BME280;7120;52.890;6.040;2023-12-20T12:01:37;101052.47;;;8.44;100.00
14089;BME280;7120;52.890;6.040;2023-12-20T12:04:06;101049.59;;;8.20;100.00
14089;BME280;7120;52.890;6.040;2023-12-20T12:06:32;101052.91;;;8.12;100.00
14089;BME280;7120;52.890;6.040;2023-12-20T12:08:57;101059.50;;;7.95;100.00
14089;BME280;7120;52.890;6.040;2023-12-20T12:11:23;101056.78;;;7.95;100.00
14089;BME280;7120;52.890;6.040;2023-12-20T12:13:49;101061.41;;;7.95;100.00
14089;BME280;7120;52.890;6.040;2023-12-20T12:16:18;101047.56;;;7.91;100.00
14089;BME280;7120;52.890;6.040;2023-12-20T12:18:54;101053.31;;;7.75;100.00
14089;BME280;7120;52.890;6.040;2023-12-20T12:21:20;101048.16;;;7.83;100.00
14089;BME280;7120;52.890;6.040;2023-12-20T12:23:48;101041.53;;;7.94;100.00
14089;BME280;7120;52.890;6.040;2023-12-20T12:26:13;101050.88;;;7.73;100.00
14089;BME280;7120;52.890;6.040;2023-12-20T12:28:42;101044.69;;;7.62;100.00
14089;BME280;7120;52.890;6.040;2023-12-20T12:31:08;101046.59;;;7.62;100.00
14089;BME280;7120;52.890;6.040;2023-12-20T12:33:34;101035.19;;;7.55;100.00
14089;BME280;7120;52.890;6.040;2023-12-20T12:36:03;101040.97;;;7.28;100.00
14089;BME280;7120;52.890;6.040;2023-12-20T12:38:30;101046.31;;;7.58;100.00
14089;BME280;7120;52.890;6.040;2023-12-20T12:40:56;101037.38;;;7.42;100.00
14089;BME280;7120;52.890;6.040;2023-12-20T12:43:21;101027.06;;;7.34;100.00
14089;BME280;7120;52.890;6.040;2023-12-20T12:45:48;101029.75;;;7.39;100.00
14089;BME280;7120;52.890;6.040;2023-12-20T12:48:14;101027.25;;;7.63;100.00
14089;BME280;7120;52.890;6.040;2023-12-20T12:50:39;101031.31;;;7.71;100.00
14089;BME280;7120;52.890;6.040;2023-12-20T12:53:04;101019.38;;;7.57;100.00
14089;BME280;7120;52.890;6.040;2023-12-20T12:55:30;101024.03;;;7.51;100.00
14089;BME280;7120;52.890;6.040;2023-12-20T12:57:55;101036.50;;;7.62;100.00
14089;BME280;7120;52.890;6.040;2023-12-20T13:00:21;101031.31;;;7.61;100.00
14089;BME280;7120;52.890;6.040;2023-12-20T13:02:47;101009.03;;;7.59;100.00